sensor_id;sensor_type;location;lat;lon;timestamp;P1;durP1;ratioP1;P2;durP2;ratioP2
25123;SDS011;13104;51.030;4.686;2023-08-07T00:01:00;14.43;;;3.58;;
25123;SDS011;13104;51.030;4.686;2023-08-07T00:03:26;13.30;;;3.60;;
25123;SDS011;13104;51.030;4.686;2023-08-07T00:05:52;17.80;;;3.80;;
25123;SDS011;13104;51.030;4.686;2023-08-07T00:08:20;11.88;;;3.25;;
25123;SDS011;13104;51.030;4.686;2023-08-07T00:10:46;8.75;;;3.28;;
25123;SDS011;13104;51.030;4.686;2023-08-07T00:13:13;12.48;;;3.40;;
25123;SDS011;13104;51.030;4.686;2023-08-07T00:15:39;13.63;;;3.05;;
25123;SDS011;13104;51.030;4.686;2023-08-07T00:18:05;17.35;;;3.95;;
25123;SDS011;13104;51.030;4.686;2023-08-07T00:20:32;13.02;;;3.45;;
25123;SDS011;13104;51.030;4.686;2023-08-07T00:22:58;10.15;;;2.78;;
25123;SDS011;13104;51.030;4.686;2023-08-07T00:25:24;13.18;;;3.72;;
25123;SDS011;13104;51.030;4.686;2023-08-07T00:27:50;14.00;;;3.38;;
25123;SDS011;13104;51.030;4.686;2023-08-07T00:30:16;14.25;;;3.58;;
25123;SDS011;13104;51.030;4.686;2023-08-07T00:32:42;10.80;;;3.42;;
25123;SDS011;13104;51.030;4.686;2023-08-07T00:35:08;14.45;;;3.38;;
25123;SDS011;13104;51.030;4.686;2023-08-07T00:37:34;14.13;;;3.80;;
25123;SDS011;13104;51.030;4.686;2023-08-07T00:40:00;13.93;;;3.90;;
25123;SDS011;13104;51.030;4.686;2023-08-07T00:42:27;8.77;;;3.17;;
25123;SDS011;13104;51.030;4.686;2023-08-07T00:44:53;13.77;;;3.65;;
25123;SDS011;13104;51.030;4.686;2023-08-07T00:47:19;16.58;;;3.50;;
25123;SDS011;13104;51.030;4.686;2023-08-07T00:49:45;9.23;;;3.40;;
25123;SDS011;13104;51.030;4.686;2023-08-07T00:52:11;23.10;;;4.07;;
25123;SDS011;13104;51.030;4.686;2023-08-07T00:54:37;12.88;;;3.30;;
25123;SDS011;13104;51.030;4.686;2023-08-07T00:57:10;12.32;;;3.85;;
25123;SDS011;13104;51.030;4.686;2023-08-07T00:59:36;13.35;;;3.55;;
25123;SDS011;13104;51.030;4.686;2023-08-07T01:02:03;12.00;;;3.20;;
25123;SDS011;13104;51.030;4.686;2023-08-07T01:04:30;12.68;;;3.30;;
25123;SDS011;13104;51.030;4.686;2023-08-07T01:06:56;13.48;;;3.67;;
25123;SDS011;13104;51.030;4.686;2023-08-07T01:09:22;12.82;;;3.58;;
25123;SDS011;13104;51.030;4.686;2023-08-07T01:11:57;10.48;;;3.45;;
25123;SDS011;13104;51.030;4.686;2023-08-07T01:14:33;9.15;;;3.20;;
25123;SDS011;13104;51.030;4.686;2023-08-07T01:17:11;11.35;;;2.83;;
25123;SDS011;13104;51.030;4.686;2023-08-07T01:19:38;14.38;;;3.33;;
25123;SDS011;13104;51.030;4.686;2023-08-07T01:22:09;15.82;;;3.67;;
25123;SDS011;13104;51.030;4.686;2023-08-07T01:24:36;10.95;;;3.38;;
25123;SDS011;13104;51.030;4.686;2023-08-07T01:29:41;15.10;;;3.10;;
25123;SDS011;13104;51.030;4.686;2023-08-07T01:32:09;13.93;;;3.17;;
25123;SDS011;13104;51.030;4.686;2023-08-07T01:34:37;19.92;;;3.38;;
25123;SDS011;13104;51.030;4.686;2023-08-07T01:37:06;15.90;;;3.63;;
25123;SDS011;13104;51.030;4.686;2023-08-07T01:39:33;10.95;;;3.25;;
25123;SDS011;13104;51.030;4.686;2023-08-07T01:42:01;7.57;;;2.80;;
25123;SDS011;13104;51.030;4.686;2023-08-07T01:44:29;16.42;;;3.88;;
25123;SDS011;13104;51.030;4.686;2023-08-07T01:46:55;13.63;;;3.15;;
25123;SDS011;13104;51.030;4.686;2023-08-07T01:49:22;10.90;;;3.58;;
25123;SDS011;13104;51.030;4.686;2023-08-07T01:51:48;14.88;;;3.10;;
25123;SDS011;13104;51.030;4.686;2023-08-07T01:54:14;10.77;;;2.83;;
25123;SDS011;13104;51.030;4.686;2023-08-07T01:56:40;13.60;;;3.83;;
25123;SDS011;13104;51.030;4.686;2023-08-07T01:59:06;7.60;;;2.90;;
25123;SDS011;13104;51.030;4.686;2023-08-07T02:01:32;10.55;;;2.90;;
25123;SDS011;13104;51.030;4.686;2023-08-07T02:03:58;10.18;;;3.60;;
25123;SDS011;13104;51.030;4.686;2023-08-07T02:06:24;12.57;;;3.42;;
25123;SDS011;13104;51.030;4.686;2023-08-07T02:08:50;7.65;;;2.90;;
25123;SDS011;13104;51.030;4.686;2023-08-07T02:11:16;10.40;;;2.92;;
25123;SDS011;13104;51.030;4.686;2023-08-07T02:13:42;9.93;;;2.85;;
25123;SDS011;13104;51.030;4.686;2023-08-07T02:16:08;13.35;;;3.63;;
25123;SDS011;13104;51.030;4.686;2023-08-07T02:18:34;9.38;;;2.90;;
25123;SDS011;13104;51.030;4.686;2023-08-07T02:21:00;15.23;;;3.42;;
25123;SDS011;13104;51.030;4.686;2023-08-07T02:23:27;13.02;;;3.25;;
25123;SDS011;13104;51.030;4.686;2023-08-07T02:25:54;9.02;;;2.67;;
25123;SDS011;13104;51.030;4.686;2023-08-07T02:28:20;12.95;;;3.22;;
25123;SDS011;13104;51.030;4.686;2023-08-07T02:30:46;10.68;;;2.97;;
25123;SDS011;13104;51.030;4.686;2023-08-07T02:33:14;10.88;;;2.88;;
25123;SDS011;13104;51.030;4.686;2023-08-07T02:35:40;8.18;;;2.75;;
25123;SDS011;13104;51.030;4.686;2023-08-07T02:38:06;8.75;;;2.92;;
25123;SDS011;13104;51.030;4.686;2023-08-07T02:40:32;10.70;;;3.35;;
25123;SDS011;13104;51.030;4.686;2023-08-07T02:42:58;11.68;;;3.00;;
25123;SDS011;13104;51.030;4.686;2023-08-07T02:45:24;12.68;;;2.97;;
25123;SDS011;13104;51.030;4.686;2023-08-07T02:47:50;11.35;;;2.92;;
25123;SDS011;13104;51.030;4.686;2023-08-07T02:50:16;10.35;;;3.22;;
25123;SDS011;13104;51.030;4.686;2023-08-07T02:52:42;10.13;;;2.97;;
25123;SDS011;13104;51.030;4.686;2023-08-07T02:55:08;8.63;;;2.63;;
25123;SDS011;13104;51.030;4.686;2023-08-07T02:57:34;9.07;;;3.15;;
25123;SDS011;13104;51.030;4.686;2023-08-07T03:00:01;9.25;;;2.88;;
25123;SDS011;13104;51.030;4.686;2023-08-07T03:02:27;12.95;;;3.25;;
25123;SDS011;13104;51.030;4.686;2023-08-07T03:04:53;15.95;;;3.22;;
25123;SDS011;13104;51.030;4.686;2023-08-07T03:07:19;10.90;;;2.55;;
25123;SDS011;13104;51.030;4.686;2023-08-07T03:09:46;7.55;;;2.80;;
25123;SDS011;13104;51.030;4.686;2023-08-07T03:12:12;10.25;;;3.38;;
25123;SDS011;13104;51.030;4.686;2023-08-07T03:14:38;14.65;;;3.13;;
25123;SDS011;13104;51.030;4.686;2023-08-07T03:17:04;16.63;;;3.15;;
25123;SDS011;13104;51.030;4.686;2023-08-07T03:19:30;9.57;;;2.50;;
25123;SDS011;13104;51.030;4.686;2023-08-07T03:21:56;8.32;;;2.97;;
25123;SDS011;13104;51.030;4.686;2023-08-07T03:24:23;10.93;;;2.92;;
25123;SDS011;13104;51.030;4.686;2023-08-07T03:26:49;9.02;;;2.53;;
25123;SDS011;13104;51.030;4.686;2023-08-07T03:29:15;8.55;;;2.72;;
25123;SDS011;13104;51.030;4.686;2023-08-07T03:31:41;9.55;;;3.03;;
25123;SDS011;13104;51.030;4.686;2023-08-07T03:34:07;8.45;;;2.85;;
25123;SDS011;13104;51.030;4.686;2023-08-07T03:36:33;16.00;;;3.15;;
25123;SDS011;13104;51.030;4.686;2023-08-07T03:38:59;8.57;;;2.70;;
25123;SDS011;13104;51.030;4.686;2023-08-07T03:41:25;8.05;;;3.00;;
25123;SDS011;13104;51.030;4.686;2023-08-07T03:43:53;12.45;;;2.72;;
25123;SDS011;13104;51.030;4.686;2023-08-07T03:46:19;11.60;;;2.83;;
25123;SDS011;13104;51.030;4.686;2023-08-07T03:48:45;12.13;;;2.80;;
25123;SDS011;13104;51.030;4.686;2023-08-07T03:51:11;10.73;;;2.80;;
25123;SDS011;13104;51.030;4.686;2023-08-07T03:53:37;8.90;;;2.53;;
25123;SDS011;13104;51.030;4.686;2023-08-07T03:56:03;7.50;;;2.95;;
25123;SDS011;13104;51.030;4.686;2023-08-07T03:58:29;9.82;;;3.03;;
25123;SDS011;13104;51.030;4.686;2023-08-07T04:00:55;7.55;;;2.53;;
25123;SDS011;13104;51.030;4.686;2023-08-07T04:03:21;7.60;;;2.83;;
25123;SDS011;13104;51.030;4.686;2023-08-07T04:05:51;10.93;;;2.85;;
25123;SDS011;13104;51.030;4.686;2023-08-07T04:08:17;7.07;;;2.45;;
25123;SDS011;13104;51.030;4.686;2023-08-07T04:10:43;9.23;;;2.70;;
25123;SDS011;13104;51.030;4.686;2023-08-07T04:13:09;10.43;;;2.92;;
25123;SDS011;13104;51.030;4.686;2023-08-07T04:15:35;9.57;;;2.63;;
25123;SDS011;13104;51.030;4.686;2023-08-07T04:18:01;13.13;;;3.20;;
25123;SDS011;13104;51.030;4.686;2023-08-07T04:20:28;11.48;;;3.13;;
25123;SDS011;13104;51.030;4.686;2023-08-07T04:22:54;11.32;;;2.75;;
25123;SDS011;13104;51.030;4.686;2023-08-07T04:25:20;6.40;;;2.47;;
25123;SDS011;13104;51.030;4.686;2023-08-07T04:27:46;9.70;;;2.53;;
25123;SDS011;13104;51.030;4.686;2023-08-07T04:30:12;9.07;;;2.45;;
25123;SDS011;13104;51.030;4.686;2023-08-07T04:32:38;10.27;;;2.53;;
25123;SDS011;13104;51.030;4.686;2023-08-07T04:35:05;9.70;;;2.33;;
25123;SDS011;13104;51.030;4.686;2023-08-07T04:37:32;6.55;;;2.50;;
25123;SDS011;13104;51.030;4.686;2023-08-07T04:39:58;11.32;;;2.65;;
25123;SDS011;13104;51.030;4.686;2023-08-07T04:42:25;8.15;;;2.53;;
25123;SDS011;13104;51.030;4.686;2023-08-07T04:44:52;11.85;;;2.85;;
25123;SDS011;13104;51.030;4.686;2023-08-07T04:47:18;8.18;;;2.97;;
25123;SDS011;13104;51.030;4.686;2023-08-07T04:49:45;10.93;;;3.10;;
25123;SDS011;13104;51.030;4.686;2023-08-07T04:52:11;9.55;;;2.60;;
25123;SDS011;13104;51.030;4.686;2023-08-07T04:54:37;9.48;;;2.28;;
25123;SDS011;13104;51.030;4.686;2023-08-07T04:57:03;8.35;;;2.83;;
25123;SDS011;13104;51.030;4.686;2023-08-07T04:59:29;13.68;;;2.50;;
25123;SDS011;13104;51.030;4.686;2023-08-07T05:01:56;12.55;;;2.78;;
25123;SDS011;13104;51.030;4.686;2023-08-07T05:04:22;8.32;;;2.80;;
25123;SDS011;13104;51.030;4.686;2023-08-07T05:06:48;10.35;;;2.90;;
25123;SDS011;13104;51.030;4.686;2023-08-07T05:09:15;8.57;;;2.95;;
25123;SDS011;13104;51.030;4.686;2023-08-07T05:11:42;7.22;;;2.53;;
25123;SDS011;13104;51.030;4.686;2023-08-07T05:14:08;10.23;;;2.88;;
25123;SDS011;13104;51.030;4.686;2023-08-07T05:16:34;9.73;;;3.03;;
25123;SDS011;13104;51.030;4.686;2023-08-07T05:19:00;10.30;;;3.15;;
25123;SDS011;13104;51.030;4.686;2023-08-07T05:21:26;10.93;;;2.85;;
25123;SDS011;13104;51.030;4.686;2023-08-07T05:23:52;8.65;;;2.90;;
25123;SDS011;13104;51.030;4.686;2023-08-07T05:26:20;6.75;;;2.35;;
25123;SDS011;13104;51.030;4.686;2023-08-07T05:28:47;9.52;;;2.97;;
25123;SDS011;13104;51.030;4.686;2023-08-07T05:31:13;10.48;;;3.05;;
25123;SDS011;13104;51.030;4.686;2023-08-07T05:33:39;10.52;;;2.60;;
25123;SDS011;13104;51.030;4.686;2023-08-07T05:36:05;5.75;;;2.42;;
25123;SDS011;13104;51.030;4.686;2023-08-07T05:38:31;10.23;;;2.80;;
25123;SDS011;13104;51.030;4.686;2023-08-07T05:40:58;11.30;;;3.08;;
25123;SDS011;13104;51.030;4.686;2023-08-07T05:43:24;10.50;;;2.70;;
25123;SDS011;13104;51.030;4.686;2023-08-07T05:45:50;7.70;;;2.90;;
25123;SDS011;13104;51.030;4.686;2023-08-07T05:48:16;8.52;;;2.92;;
25123;SDS011;13104;51.030;4.686;2023-08-07T05:50:42;14.32;;;3.08;;
25123;SDS011;13104;51.030;4.686;2023-08-07T05:53:08;9.32;;;2.70;;
25123;SDS011;13104;51.030;4.686;2023-08-07T05:55:34;9.25;;;2.47;;
25123;SDS011;13104;51.030;4.686;2023-08-07T05:58:00;10.32;;;2.97;;
25123;SDS011;13104;51.030;4.686;2023-08-07T06:00:26;8.88;;;3.05;;
25123;SDS011;13104;51.030;4.686;2023-08-07T06:02:53;14.05;;;2.67;;
25123;SDS011;13104;51.030;4.686;2023-08-07T06:05:19;6.15;;;2.33;;
25123;SDS011;13104;51.030;4.686;2023-08-07T06:07:45;10.68;;;3.03;;
25123;SDS011;13104;51.030;4.686;2023-08-07T06:10:12;12.50;;;2.80;;
25123;SDS011;13104;51.030;4.686;2023-08-07T06:12:38;10.88;;;3.00;;
25123;SDS011;13104;51.030;4.686;2023-08-07T06:15:04;12.73;;;3.30;;
25123;SDS011;13104;51.030;4.686;2023-08-07T06:17:30;10.32;;;3.05;;
25123;SDS011;13104;51.030;4.686;2023-08-07T06:19:56;7.72;;;3.10;;
25123;SDS011;13104;51.030;4.686;2023-08-07T06:22:22;10.93;;;2.72;;
25123;SDS011;13104;51.030;4.686;2023-08-07T06:24:48;8.27;;;2.38;;
25123;SDS011;13104;51.030;4.686;2023-08-07T06:27:14;12.30;;;2.78;;
25123;SDS011;13104;51.030;4.686;2023-08-07T06:29:40;6.13;;;2.60;;
25123;SDS011;13104;51.030;4.686;2023-08-07T06:32:07;13.48;;;3.13;;
25123;SDS011;13104;51.030;4.686;2023-08-07T06:34:35;7.50;;;2.65;;
25123;SDS011;13104;51.030;4.686;2023-08-07T06:37:03;11.77;;;2.90;;
25123;SDS011;13104;51.030;4.686;2023-08-07T06:39:29;12.95;;;2.67;;
25123;SDS011;13104;51.030;4.686;2023-08-07T06:41:56;12.18;;;3.03;;
25123;SDS011;13104;51.030;4.686;2023-08-07T06:44:22;11.40;;;2.92;;
25123;SDS011;13104;51.030;4.686;2023-08-07T06:46:48;5.68;;;2.70;;
25123;SDS011;13104;51.030;4.686;2023-08-07T06:49:14;7.80;;;2.60;;
25123;SDS011;13104;51.030;4.686;2023-08-07T06:51:40;9.55;;;2.83;;
25123;SDS011;13104;51.030;4.686;2023-08-07T06:54:06;6.10;;;2.50;;
25123;SDS011;13104;51.030;4.686;2023-08-07T06:56:32;7.97;;;2.40;;
25123;SDS011;13104;51.030;4.686;2023-08-07T06:58:58;6.50;;;2.60;;
25123;SDS011;13104;51.030;4.686;2023-08-07T07:01:24;7.93;;;2.95;;
25123;SDS011;13104;51.030;4.686;2023-08-07T07:03:52;10.50;;;2.80;;
25123;SDS011;13104;51.030;4.686;2023-08-07T07:06:18;7.18;;;2.67;;
25123;SDS011;13104;51.030;4.686;2023-08-07T07:08:45;7.63;;;3.03;;
25123;SDS011;13104;51.030;4.686;2023-08-07T07:11:12;9.35;;;3.10;;
25123;SDS011;13104;51.030;4.686;2023-08-07T07:13:38;7.95;;;2.65;;
25123;SDS011;13104;51.030;4.686;2023-08-07T07:16:04;11.88;;;2.88;;
25123;SDS011;13104;51.030;4.686;2023-08-07T07:18:30;7.95;;;2.58;;
25123;SDS011;13104;51.030;4.686;2023-08-07T07:20:57;8.63;;;2.53;;
25123;SDS011;13104;51.030;4.686;2023-08-07T07:23:26;13.75;;;2.88;;
25123;SDS011;13104;51.030;4.686;2023-08-07T07:25:53;9.40;;;2.70;;
25123;SDS011;13104;51.030;4.686;2023-08-07T07:28:19;8.27;;;2.50;;
25123;SDS011;13104;51.030;4.686;2023-08-07T07:30:45;7.25;;;2.70;;
25123;SDS011;13104;51.030;4.686;2023-08-07T07:33:11;8.48;;;2.58;;
25123;SDS011;13104;51.030;4.686;2023-08-07T07:35:38;12.70;;;2.75;;
25123;SDS011;13104;51.030;4.686;2023-08-07T07:38:05;6.03;;;2.50;;
25123;SDS011;13104;51.030;4.686;2023-08-07T07:40:32;8.60;;;2.85;;
25123;SDS011;13104;51.030;4.686;2023-08-07T07:42:59;4.57;;;2.45;;
25123;SDS011;13104;51.030;4.686;2023-08-07T07:45:25;8.77;;;2.55;;
25123;SDS011;13104;51.030;4.686;2023-08-07T07:47:51;7.95;;;2.58;;
25123;SDS011;13104;51.030;4.686;2023-08-07T07:50:17;10.57;;;3.33;;
25123;SDS011;13104;51.030;4.686;2023-08-07T07:52:44;12.98;;;2.65;;
25123;SDS011;13104;51.030;4.686;2023-08-07T07:55:10;10.77;;;2.70;;
25123;SDS011;13104;51.030;4.686;2023-08-07T07:57:37;5.97;;;2.80;;
25123;SDS011;13104;51.030;4.686;2023-08-07T08:00:03;9.13;;;2.70;;
25123;SDS011;13104;51.030;4.686;2023-08-07T08:02:35;13.88;;;3.00;;
25123;SDS011;13104;51.030;4.686;2023-08-07T08:05:01;8.80;;;3.13;;
25123;SDS011;13104;51.030;4.686;2023-08-07T08:07:27;8.73;;;2.85;;
25123;SDS011;13104;51.030;4.686;2023-08-07T08:09:53;7.53;;;2.55;;
25123;SDS011;13104;51.030;4.686;2023-08-07T08:12:21;11.15;;;2.45;;
25123;SDS011;13104;51.030;4.686;2023-08-07T08:14:47;11.00;;;2.85;;
25123;SDS011;13104;51.030;4.686;2023-08-07T08:17:13;11.93;;;2.75;;
25123;SDS011;13104;51.030;4.686;2023-08-07T08:19:39;6.05;;;2.55;;
25123;SDS011;13104;51.030;4.686;2023-08-07T08:22:05;14.75;;;2.83;;
25123;SDS011;13104;51.030;4.686;2023-08-07T08:24:31;10.23;;;2.90;;
25123;SDS011;13104;51.030;4.686;2023-08-07T08:26:58;13.65;;;2.80;;
25123;SDS011;13104;51.030;4.686;2023-08-07T08:29:24;12.98;;;2.85;;
25123;SDS011;13104;51.030;4.686;2023-08-07T08:31:53;9.95;;;2.60;;
25123;SDS011;13104;51.030;4.686;2023-08-07T08:34:19;9.02;;;2.63;;
25123;SDS011;13104;51.030;4.686;2023-08-07T08:36:46;8.02;;;3.17;;
25123;SDS011;13104;51.030;4.686;2023-08-07T08:39:12;10.43;;;2.90;;
25123;SDS011;13104;51.030;4.686;2023-08-07T08:41:39;7.43;;;2.58;;
25123;SDS011;13104;51.030;4.686;2023-08-07T08:44:06;7.28;;;2.50;;
25123;SDS011;13104;51.030;4.686;2023-08-07T08:46:33;9.00;;;2.85;;
25123;SDS011;13104;51.030;4.686;2023-08-07T08:48:59;4.72;;;2.55;;
25123;SDS011;13104;51.030;4.686;2023-08-07T08:51:26;5.97;;;2.72;;
25123;SDS011;13104;51.030;4.686;2023-08-07T08:53:53;5.85;;;2.40;;
25123;SDS011;13104;51.030;4.686;2023-08-07T08:56:21;10.23;;;2.40;;
25123;SDS011;13104;51.030;4.686;2023-08-07T08:58:48;7.18;;;2.40;;
25123;SDS011;13104;51.030;4.686;2023-08-07T09:01:17;7.45;;;2.47;;
25123;SDS011;13104;51.030;4.686;2023-08-07T09:03:44;8.55;;;2.60;;
25123;SDS011;13104;51.030;4.686;2023-08-07T09:06:11;10.20;;;2.53;;
25123;SDS011;13104;51.030;4.686;2023-08-07T09:08:38;5.38;;;2.45;;
25123;SDS011;13104;51.030;4.686;2023-08-07T09:11:06;5.78;;;2.40;;
25123;SDS011;13104;51.030;4.686;2023-08-07T09:13:33;6.88;;;2.10;;
25123;SDS011;13104;51.030;4.686;2023-08-07T09:15:59;6.57;;;2.45;;
25123;SDS011;13104;51.030;4.686;2023-08-07T09:18:26;5.50;;;2.30;;
25123;SDS011;13104;51.030;4.686;2023-08-07T09:20:52;7.60;;;2.00;;
25123;SDS011;13104;51.030;4.686;2023-08-07T09:23:18;6.63;;;2.30;;
25123;SDS011;13104;51.030;4.686;2023-08-07T09:25:45;6.00;;;2.22;;
25123;SDS011;13104;51.030;4.686;2023-08-07T09:28:11;9.15;;;2.40;;
25123;SDS011;13104;51.030;4.686;2023-08-07T09:30:37;7.30;;;2.10;;
25123;SDS011;13104;51.030;4.686;2023-08-07T09:33:03;8.73;;;2.40;;
25123;SDS011;13104;51.030;4.686;2023-08-07T09:35:30;5.07;;;2.10;;
25123;SDS011;13104;51.030;4.686;2023-08-07T09:37:57;7.68;;;2.10;;
25123;SDS011;13104;51.030;4.686;2023-08-07T09:40:23;7.50;;;2.70;;
25123;SDS011;13104;51.030;4.686;2023-08-07T09:42:49;7.75;;;2.22;;
25123;SDS011;13104;51.030;4.686;2023-08-07T09:45:20;4.50;;;2.08;;
25123;SDS011;13104;51.030;4.686;2023-08-07T09:47:56;10.25;;;2.33;;
25123;SDS011;13104;51.030;4.686;2023-08-07T09:52:48;7.53;;;2.05;;
25123;SDS011;13104;51.030;4.686;2023-08-07T09:55:15;8.43;;;2.30;;
25123;SDS011;13104;51.030;4.686;2023-08-07T09:57:44;5.03;;;1.80;;
25123;SDS011;13104;51.030;4.686;2023-08-07T10:00:11;5.20;;;1.75;;
25123;SDS011;13104;51.030;4.686;2023-08-07T10:02:41;5.97;;;2.03;;
25123;SDS011;13104;51.030;4.686;2023-08-07T10:05:09;3.95;;;1.90;;
25123;SDS011;13104;51.030;4.686;2023-08-07T10:07:39;9.27;;;2.33;;
25123;SDS011;13104;51.030;4.686;2023-08-07T10:10:05;17.02;;;2.25;;
25123;SDS011;13104;51.030;4.686;2023-08-07T10:12:31;6.45;;;2.13;;
25123;SDS011;13104;51.030;4.686;2023-08-07T10:15:01;6.38;;;2.35;;
25123;SDS011;13104;51.030;4.686;2023-08-07T10:17:27;6.30;;;1.98;;
25123;SDS011;13104;51.030;4.686;2023-08-07T10:19:53;4.32;;;1.63;;
25123;SDS011;13104;51.030;4.686;2023-08-07T10:22:20;5.10;;;1.92;;
25123;SDS011;13104;51.030;4.686;2023-08-07T10:24:47;5.50;;;1.55;;
25123;SDS011;13104;51.030;4.686;2023-08-07T10:27:17;4.25;;;1.60;;
25123;SDS011;13104;51.030;4.686;2023-08-07T10:29:44;9.65;;;1.90;;
25123;SDS011;13104;51.030;4.686;2023-08-07T10:32:12;3.67;;;1.60;;
25123;SDS011;13104;51.030;4.686;2023-08-07T10:34:38;7.03;;;1.80;;
25123;SDS011;13104;51.030;4.686;2023-08-07T10:37:08;4.28;;;1.85;;
25123;SDS011;13104;51.030;4.686;2023-08-07T10:39:34;2.65;;;1.35;;
25123;SDS011;13104;51.030;4.686;2023-08-07T10:42:00;2.38;;;1.55;;
25123;SDS011;13104;51.030;4.686;2023-08-07T10:44:30;3.63;;;1.77;;
25123;SDS011;13104;51.030;4.686;2023-08-07T10:46:57;5.82;;;2.10;;
25123;SDS011;13104;51.030;4.686;2023-08-07T10:49:36;3.63;;;1.30;;
25123;SDS011;13104;51.030;4.686;2023-08-07T10:52:09;3.30;;;1.60;;
25123;SDS011;13104;51.030;4.686;2023-08-07T10:54:45;2.53;;;1.60;;
25123;SDS011;13104;51.030;4.686;2023-08-07T10:57:12;3.75;;;1.50;;
25123;SDS011;13104;51.030;4.686;2023-08-07T10:59:42;4.45;;;1.85;;
25123;SDS011;13104;51.030;4.686;2023-08-07T11:02:11;4.00;;;1.50;;
25123;SDS011;13104;51.030;4.686;2023-08-07T11:04:37;3.13;;;1.70;;
25123;SDS011;13104;51.030;4.686;2023-08-07T11:07:03;3.67;;;1.60;;
25123;SDS011;13104;51.030;4.686;2023-08-07T11:09:29;2.75;;;1.70;;
25123;SDS011;13104;51.030;4.686;2023-08-07T11:11:55;2.80;;;1.48;;
25123;SDS011;13104;51.030;4.686;2023-08-07T11:14:21;3.28;;;1.58;;
25123;SDS011;13104;51.030;4.686;2023-08-07T11:16:48;3.67;;;1.65;;
25123;SDS011;13104;51.030;4.686;2023-08-07T11:19:14;2.40;;;1.48;;
25123;SDS011;13104;51.030;4.686;2023-08-07T11:21:41;2.13;;;1.33;;
25123;SDS011;13104;51.030;4.686;2023-08-07T11:24:08;4.50;;;1.73;;
25123;SDS011;13104;51.030;4.686;2023-08-07T11:26:34;3.05;;;1.50;;
25123;SDS011;13104;51.030;4.686;2023-08-07T11:29:00;2.13;;;1.33;;
25123;SDS011;13104;51.030;4.686;2023-08-07T11:31:26;5.35;;;1.30;;
25123;SDS011;13104;51.030;4.686;2023-08-07T11:33:56;5.93;;;1.60;;
25123;SDS011;13104;51.030;4.686;2023-08-07T11:36:27;3.20;;;1.60;;
25123;SDS011;13104;51.030;4.686;2023-08-07T11:38:54;2.45;;;1.55;;
25123;SDS011;13104;51.030;4.686;2023-08-07T11:41:21;6.22;;;1.40;;
25123;SDS011;13104;51.030;4.686;2023-08-07T11:43:47;4.60;;;1.52;;
25123;SDS011;13104;51.030;4.686;2023-08-07T11:46:13;5.05;;;2.15;;
25123;SDS011;13104;51.030;4.686;2023-08-07T11:48:40;6.68;;;1.70;;
25123;SDS011;13104;51.030;4.686;2023-08-07T11:51:07;4.43;;;1.90;;
25123;SDS011;13104;51.030;4.686;2023-08-07T11:53:34;2.80;;;1.33;;
25123;SDS011;13104;51.030;4.686;2023-08-07T11:56:01;3.35;;;1.50;;
25123;SDS011;13104;51.030;4.686;2023-08-07T11:58:33;4.63;;;1.60;;
25123;SDS011;13104;51.030;4.686;2023-08-07T12:01:01;4.40;;;1.40;;
25123;SDS011;13104;51.030;4.686;2023-08-07T12:03:30;3.15;;;1.30;;
25123;SDS011;13104;51.030;4.686;2023-08-07T12:05:57;2.22;;;1.30;;
25123;SDS011;13104;51.030;4.686;2023-08-07T12:08:30;3.13;;;1.40;;
25123;SDS011;13104;51.030;4.686;2023-08-07T12:10:57;1.97;;;1.40;;
25123;SDS011;13104;51.030;4.686;2023-08-07T12:13:24;3.47;;;1.38;;
25123;SDS011;13104;51.030;4.686;2023-08-07T12:15:53;6.78;;;1.65;;
25123;SDS011;13104;51.030;4.686;2023-08-07T12:18:20;5.20;;;1.40;;
25123;SDS011;13104;51.030;4.686;2023-08-07T12:20:48;5.25;;;1.58;;
25123;SDS011;13104;51.030;4.686;2023-08-07T12:23:14;3.45;;;1.63;;
25123;SDS011;13104;51.030;4.686;2023-08-07T12:25:44;2.83;;;1.50;;
25123;SDS011;13104;51.030;4.686;2023-08-07T12:28:10;2.95;;;1.30;;
25123;SDS011;13104;51.030;4.686;2023-08-07T12:30:37;2.67;;;1.20;;
25123;SDS011;13104;51.030;4.686;2023-08-07T12:33:03;5.93;;;1.48;;
25123;SDS011;13104;51.030;4.686;2023-08-07T12:35:30;4.07;;;1.40;;
25123;SDS011;13104;51.030;4.686;2023-08-07T12:37:56;4.50;;;1.42;;
25123;SDS011;13104;51.030;4.686;2023-08-07T12:40:22;4.38;;;1.50;;
25123;SDS011;13104;51.030;4.686;2023-08-07T12:42:49;2.80;;;1.35;;
25123;SDS011;13104;51.030;4.686;2023-08-07T12:45:16;5.05;;;1.70;;
25123;SDS011;13104;51.030;4.686;2023-08-07T12:47:44;5.82;;;1.92;;
25123;SDS011;13104;51.030;4.686;2023-08-07T12:50:10;2.88;;;1.63;;
25123;SDS011;13104;51.030;4.686;2023-08-07T12:52:36;5.57;;;1.65;;
25123;SDS011;13104;51.030;4.686;2023-08-07T12:55:02;4.05;;;1.90;;
25123;SDS011;13104;51.030;4.686;2023-08-07T12:57:29;3.45;;;1.65;;
25123;SDS011;13104;51.030;4.686;2023-08-07T12:59:55;3.63;;;1.70;;
25123;SDS011;13104;51.030;4.686;2023-08-07T13:02:21;2.70;;;1.50;;
25123;SDS011;13104;51.030;4.686;2023-08-07T13:04:47;6.75;;;1.65;;
25123;SDS011;13104;51.030;4.686;2023-08-07T13:07:13;3.58;;;1.50;;
25123;SDS011;13104;51.030;4.686;2023-08-07T13:09:39;3.28;;;1.60;;
25123;SDS011;13104;51.030;4.686;2023-08-07T13:12:05;2.85;;;1.40;;
25123;SDS011;13104;51.030;4.686;2023-08-07T13:14:32;3.35;;;1.60;;
25123;SDS011;13104;51.030;4.686;2023-08-07T13:16:58;4.80;;;1.40;;
25123;SDS011;13104;51.030;4.686;2023-08-07T13:19:24;5.18;;;1.30;;
25123;SDS011;13104;51.030;4.686;2023-08-07T13:21:50;4.80;;;1.38;;
25123;SDS011;13104;51.030;4.686;2023-08-07T13:24:16;2.75;;;1.25;;
25123;SDS011;13104;51.030;4.686;2023-08-07T13:26:42;6.85;;;1.80;;
25123;SDS011;13104;51.030;4.686;2023-08-07T13:29:11;3.40;;;1.38;;
25123;SDS011;13104;51.030;4.686;2023-08-07T13:31:37;4.13;;;1.50;;
25123;SDS011;13104;51.030;4.686;2023-08-07T13:34:03;2.85;;;1.60;;
25123;SDS011;13104;51.030;4.686;2023-08-07T13:36:36;2.55;;;1.40;;
25123;SDS011;13104;51.030;4.686;2023-08-07T13:39:03;3.22;;;1.50;;
25123;SDS011;13104;51.030;4.686;2023-08-07T13:41:29;3.33;;;1.40;;
25123;SDS011;13104;51.030;4.686;2023-08-07T13:43:55;7.03;;;1.83;;
25123;SDS011;13104;51.030;4.686;2023-08-07T13:46:22;3.33;;;1.33;;
25123;SDS011;13104;51.030;4.686;2023-08-07T13:48:48;2.97;;;1.40;;
25123;SDS011;13104;51.030;4.686;2023-08-07T13:51:14;3.92;;;1.35;;
25123;SDS011;13104;51.030;4.686;2023-08-07T13:53:41;2.50;;;1.40;;
25123;SDS011;13104;51.030;4.686;2023-08-07T13:56:07;5.60;;;1.92;;
25123;SDS011;13104;51.030;4.686;2023-08-07T13:58:36;1.92;;;1.20;;
25123;SDS011;13104;51.030;4.686;2023-08-07T14:01:02;3.33;;;1.40;;
25123;SDS011;13104;51.030;4.686;2023-08-07T14:03:29;2.75;;;1.00;;
25123;SDS011;13104;51.030;4.686;2023-08-07T14:05:55;2.63;;;1.38;;
25123;SDS011;13104;51.030;4.686;2023-08-07T14:08:21;3.00;;;0.93;;
25123;SDS011;13104;51.030;4.686;2023-08-07T14:10:47;3.08;;;0.82;;
25123;SDS011;13104;51.030;4.686;2023-08-07T14:13:13;2.22;;;1.05;;
25123;SDS011;13104;51.030;4.686;2023-08-07T14:15:40;3.00;;;1.00;;
25123;SDS011;13104;51.030;4.686;2023-08-07T14:18:06;2.33;;;0.98;;
25123;SDS011;13104;51.030;4.686;2023-08-07T14:20:32;2.90;;;0.85;;
25123;SDS011;13104;51.030;4.686;2023-08-07T14:22:58;5.18;;;1.40;;
25123;SDS011;13104;51.030;4.686;2023-08-07T14:25:24;2.63;;;1.10;;
25123;SDS011;13104;51.030;4.686;2023-08-07T14:27:50;1.80;;;1.00;;
25123;SDS011;13104;51.030;4.686;2023-08-07T14:30:16;4.50;;;1.20;;
25123;SDS011;13104;51.030;4.686;2023-08-07T14:32:42;3.90;;;1.10;;
25123;SDS011;13104;51.030;4.686;2023-08-07T14:35:08;3.30;;;0.90;;
25123;SDS011;13104;51.030;4.686;2023-08-07T14:37:34;4.85;;;0.90;;
25123;SDS011;13104;51.030;4.686;2023-08-07T14:40:03;4.85;;;1.27;;
25123;SDS011;13104;51.030;4.686;2023-08-07T14:42:30;2.47;;;0.93;;
25123;SDS011;13104;51.030;4.686;2023-08-07T14:44:56;3.05;;;1.00;;